Time;durP1;ratioP1;P1;durP2;ratioP2;P2;SDS_P1;SDS_P2;PMS_P1;PMS_P2;Temp;Humidity;BMP_temperature;BMP_pressure;BME280_temperature;BME280_humidity;BME280_pressure;Samples;Min_cycle;Max_cycle;Signal;HPM_P1;HPM_P2
2022/06/06 00:00:04;;;;;;;4.60;4.30;;;;;22.10;100226.00;;;;2078648;28;20210;-58
2022/06/06 00:01:14;;;;;;;4.97;4.68;;;;;22.10;100229.00;;;;2078861;28;20225;-57
2022/06/06 00:02:14;;;;;;;4.10;3.80;;;;;22.10;100226.00;;;;2078899;28;20210;-57
2022/06/06 00:03:15;;;;;;;3.87;3.63;;;;;22.10;100232.00;;;;2078885;28;20251;-57
2022/06/06 00:04:16;;;;;;;4.32;4.03;;;;;22.10;100237.00;;;;2077894;28;20209;-58
2022/06/06 00:05:16;;;;;;;4.50;4.20;;;;;22.10;100232.00;;;;2069591;28;20205;-58
2022/06/06 00:06:19;;;;;;;3.83;3.60;;;;;22.10;100232.00;;;;2077793;28;20236;-58
2022/06/06 00:07:20;;;;;;;4.35;4.05;;;;;22.10;100241.00;;;;2078785;28;20210;-57
2022/06/06 00:08:20;;;;;;;4.43;4.13;;;;;22.10;100239.00;;;;2077964;28;20283;-57
2022/06/06 00:09:20;;;;;;;4.50;4.20;;;;;22.10;100241.00;;;;2078022;28;20599;-57
2022/06/06 00:10:21;;;;;;;4.40;4.10;;;;;22.10;100240.00;;;;2077934;28;20679;-58
2022/06/06 00:11:21;;;;;;;4.43;4.13;;;;;22.10;100235.00;;;;2078234;28;20222;-57
2022/06/06 00:12:23;;;;;;;4.60;4.30;;;;;22.10;100245.00;;;;2078886;28;20232;-57
2022/06/06 00:13:23;;;;;;;4.05;3.80;;;;;22.10;100249.00;;;;2078170;28;20303;-57
2022/06/06 00:14:24;;;;;;;4.60;4.20;;;;;22.10;100259.00;;;;2075043;28;20284;-57
2022/06/06 00:15:24;;;;;;;4.20;3.90;;;;;22.10;100246.00;;;;2075299;28;20705;-57
2022/06/06 00:16:24;;;;;;;4.90;4.50;;;;;22.10;100250.00;;;;2078276;28;20291;-59
2022/06/06 00:17:25;;;;;;;4.63;4.33;;;;;22.10;100192.00;;;;2078755;28;20225;-56
2022/06/06 00:18:25;;;;;;;4.30;4.00;;;;;22.10;100247.00;;;;2078823;28;20356;-57
2022/06/06 00:19:25;;;;;;;4.90;4.50;;;;;22.10;100254.00;;;;2077672;28;20233;-56
2022/06/06 00:20:26;;;;;;;5.33;4.93;;;;;22.10;100247.00;;;;2069693;28;20229;-57
2022/06/06 00:21:26;;;;;;;5.50;5.10;;;;;22.10;100251.00;;;;2078106;28;20228;-57
2022/06/06 00:22:26;;;;;;;5.20;4.90;;;;;22.10;100245.00;;;;2078140;28;20228;-56
2022/06/06 00:23:27;;;;;;;4.77;4.37;;;;;22.10;100247.00;;;;2078823;28;20660;-57
2022/06/06 00:24:27;;;;;;;4.63;4.23;;;;;22.00;100246.00;;;;2078497;28;20249;-57
2022/06/06 00:25:28;;;;;;;4.77;4.43;;;;;22.10;100241.00;;;;2072244;28;20225;-58
2022/06/06 00:26:29;;;;;;;5.07;4.70;;;;;22.10;100248.00;;;;2078518;28;20222;-57
2022/06/06 00:27:30;;;;;;;4.60;4.30;;;;;22.10;100247.00;;;;2078640;28;20232;-58
2022/06/06 00:28:31;;;;;;;4.78;4.38;;;;;22.10;100246.00;;;;2078320;28;20217;-60
2022/06/06 00:29:35;;;;;;;5.03;4.70;;;;;22.10;100252.00;;;;2078530;28;20292;-59
2022/06/06 00:30:35;;;;;;;5.20;4.80;;;;;22.10;100243.00;;;;2078059;28;20232;-57
2022/06/06 00:35:34;;;;;;;5.00;4.70;;;;;22.10;100242.00;;;;2077884;28;20670;-57
2022/06/06 00:36:34;;;;;;;4.90;4.60;;;;;22.10;100260.00;;;;2077278;28;20221;-57
2022/06/06 00:37:35;;;;;;;5.40;5.00;;;;;22.10;100259.00;;;;2077900;28;20274;-57
2022/06/06 00:38:35;;;;;;;5.33;4.93;;;;;22.10;100252.00;;;;2077749;28;20317;-57
2022/06/06 00:39:35;;;;;;;5.30;4.90;;;;;22.10;100246.00;;;;2078667;28;20256;-57
2022/06/06 00:40:36;;;;;;;5.40;5.00;;;;;22.10;100254.00;;;;2078595;28;20633;-57
2022/06/06 00:41:40;;;;;;;5.97;5.57;;;;;22.10;100233.00;;;;2078603;28;20221;-57
2022/06/06 00:42:42;;;;;;;5.82;5.43;;;;;22.10;100250.00;;;;2069572;28;20320;-57
2022/06/06 00:43:42;;;;;;;5.50;5.10;;;;;22.10;100257.00;;;;2068339;28;20237;-58
2022/06/06 00:44:43;;;;;;;5.27;4.90;;;;;22.10;100250.00;;;;2067212;28;20590;-57
2022/06/06 00:45:43;;;;;;;5.30;4.90;;;;;22.10;100253.00;;;;2068221;28;20210;-57
2022/06/06 00:47:08;;;;;;;5.67;5.27;;;;;22.10;100248.00;;;;2061828;28;20211;-57
2022/06/06 00:48:11;;;;;;;5.90;5.50;;;;;22.10;100243.00;;;;2054671;28;20234;-57
2022/06/06 00:49:24;;;;;;;5.45;5.05;;;;;22.10;100260.00;;;;2069745;28;20222;-57
2022/06/06 00:50:45;;;;;;;5.65;5.25;;;;;22.10;100253.00;;;;2070510;28;20230;-57
2022/06/06 00:51:45;;;;;;;6.45;5.95;;;;;22.10;100248.00;;;;2070229;28;20222;-57
2022/06/06 00:52:46;;;;;;;6.33;5.83;;;;;22.10;100245.00;;;;2070297;28;20590;-58
2022/06/06 00:53:52;;;;;;;6.63;6.13;;;;;22.10;100242.00;;;;2069667;28;21019;-57
2022/06/06 00:54:56;;;;;;;6.30;5.80;;;;;22.10;100251.00;;;;2061965;28;20219;-58
2022/06/06 00:56:15;;;;;;;6.55;6.00;;;;;22.10;100231.00;;;;2061321;28;20223;-57
2022/06/06 00:57:19;;;;;;;6.38;5.88;;;;;22.10;100246.00;;;;2063509;28;20309;-57
2022/06/06 00:58:22;;;;;;;5.85;5.45;;;;;22.10;100248.00;;;;2062487;28;20214;-57
2022/06/06 00:59:25;;;;;;;6.05;5.55;;;;;22.10;100245.00;;;;2061613;28;20706;-57
2022/06/06 01:00:25;;;;;;;6.47;5.97;;;;;22.10;100248.00;;;;2061301;28;20223;-58
2022/06/06 01:01:26;;;;;;;6.30;5.80;;;;;22.10;100243.00;;;;2053480;28;20220;-56
2022/06/06 01:02:26;;;;;;;5.90;5.40;;;;;22.10;100256.00;;;;2059800;28;20249;-58
2022/06/06 01:03:27;;;;;;;5.83;5.33;;;;;22.10;100245.00;;;;2069484;28;20218;-58
2022/06/06 01:04:27;;;;;;;6.17;5.67;;;;;22.10;100250.00;;;;2060831;28;20787;-55
2022/06/06 01:05:27;;;;;;;6.27;5.67;;;;;21.80;100254.00;;;;2052819;28;20217;-58
2022/06/06 01:06:29;;;;;;;5.97;5.57;;;;;22.10;100230.00;;;;2061244;28;20214;-55
2022/06/06 01:07:29;;;;;;;6.35;5.85;;;;;22.10;100237.00;;;;2057657;28;20222;-58
2022/06/06 01:08:30;;;;;;;6.73;6.23;;;;;22.10;100248.00;;;;2061164;28;20297;-54
2022/06/06 01:09:31;;;;;;;5.80;5.40;;;;;22.10;100259.00;;;;2069437;28;20226;-59
2022/06/06 01:10:31;;;;;;;6.70;6.20;;;;;22.10;100263.00;;;;2069767;28;20900;-58
2022/06/06 01:11:36;;;;;;;7.20;6.60;;;;;22.10;100258.00;;;;2069946;28;20582;-58
2022/06/06 01:12:37;;;;;;;6.50;5.90;;;;;22.10;100251.00;;;;2069012;28;20217;-58
2022/06/06 01:13:37;;;;;;;6.50;6.00;;;;;22.10;100242.00;;;;2059524;28;20226;-58
2022/06/06 01:14:46;;;;;;;6.97;6.37;;;;;22.10;100253.00;;;;2069071;28;20285;-62
2022/06/06 01:15:59;;;;;;;7.70;7.10;;;;;22.10;100256.00;;;;2061394;28;20222;-56
2022/06/06 01:17:07;;;;;;;6.85;6.25;;;;;22.10;100251.00;;;;2062454;28;20211;-58
2022/06/06 01:18:13;;;;;;;6.43;5.93;;;;;22.10;100195.00;;;;2062264;28;20571;-58
2022/06/06 01:19:40;;;;;;;6.88;6.28;;;;;22.10;100251.00;;;;2043634;28;20343;-58
2022/06/06 01:21:03;;;;;;;6.43;5.85;;;;;22.10;100252.00;;;;2068396;28;20228;-57
2022/06/06 01:22:32;;;;;;;6.50;6.00;;;;;22.10;100250.00;;;;2077814;28;20244;-58
2022/06/06 01:23:41;;;;;;;6.30;5.80;;;;;22.10;100253.00;;;;2075698;28;20693;-57
2022/06/06 01:25:06;;;;;;;7.10;6.50;;;;;22.10;100255.00;;;;2077955;28;20214;-58
2022/06/06 01:26:34;;;;;;;6.72;6.22;;;;;22.10;100256.00;;;;2077566;28;20220;-58
2022/06/06 01:27:45;;;;;;;7.13;6.53;;;;;22.10;100250.00;;;;2077178;28;20993;-55
2022/06/06 01:28:57;;;;;;;6.40;5.90;;;;;22.10;100275.00;;;;2067742;28;20240;-56
2022/06/06 01:30:01;;;;;;;8.02;7.32;;;;;22.10;100252.00;;;;2078285;28;20213;-57
2022/06/06 01:31:03;;;;;;;7.00;6.50;;;;;22.10;100247.00;;;;2077892;28;20290;-56
2022/06/06 01:32:14;;;;;;;7.70;7.10;;;;;22.10;100245.00;;;;2069564;28;20597;-57
2022/06/06 01:33:14;;;;;;;7.50;6.90;;;;;22.10;100255.00;;;;2070742;28;20229;-56
2022/06/06 01:34:23;;;;;;;6.50;6.00;;;;;22.00;100227.00;;;;2077881;28;20242;-57
2022/06/06 01:35:29;;;;;;;7.68;7.07;;;;;22.10;100255.00;;;;2068722;28;20313;-58
2022/06/06 01:36:30;;;;;;;7.25;6.65;;;;;22.10;100255.00;;;;2071014;28;20217;-57
2022/06/06 01:37:41;;;;;;;7.83;7.20;;;;;22.10;100258.00;;;;2077605;28;20720;-56
2022/06/06 01:38:41;;;;;;;6.90;6.30;;;;;22.10;100256.00;;;;2077434;28;20467;-57
2022/06/06 01:39:42;;;;;;;7.90;7.17;;;;;22.10;100252.00;;;;2061524;28;20215;-58
2022/06/06 01:40:51;;;;;;;7.87;7.27;;;;;22.10;100256.00;;;;2069480;28;20260;-58
2022/06/06 01:42:01;;;;;;;6.95;6.35;;;;;22.10;100254.00;;;;2077046;28;20268;-58
2022/06/06 01:43:15;;;;;;;7.40;6.80;;;;;22.10;100254.00;;;;2069162;28;20682;-59
2022/06/06 01:44:22;;;;;;;7.18;6.57;;;;;22.10;100252.00;;;;2065931;28;20680;-58
2022/06/06 01:45:43;;;;;;;7.55;6.85;;;;;22.10;100253.00;;;;2061710;28;20207;-55
2022/06/06 01:46:43;;;;;;;7.20;6.60;;;;;22.10;100254.00;;;;2073437;28;20210;-59
2022/06/06 01:47:51;;;;;;;7.87;7.27;;;;;22.10;100255.00;;;;2077916;28;20219;-58
2022/06/06 01:48:52;;;;;;;8.20;7.50;;;;;22.10;100253.00;;;;2078867;28;20206;-58
2022/06/06 01:49:55;;;;;;;7.50;6.90;;;;;22.10;100251.00;;;;2070799;28;20579;-56
2022/06/06 01:50:55;;;;;;;7.20;6.60;;;;;22.10;100251.00;;;;2063297;28;20222;-58
2022/06/06 01:52:00;;;;;;;6.50;6.00;;;;;22.10;100253.00;;;;2063107;28;20221;-57
2022/06/06 01:53:04;;;;;;;6.75;6.25;;;;;22.00;100247.00;;;;2071596;28;20221;-58
2022/06/06 01:54:05;;;;;;;7.30;6.70;;;;;22.00;100248.00;;;;2079254;28;20217;-58
2022/06/06 01:55:05;;;;;;;7.20;6.60;;;;;22.00;100246.00;;;;2079161;28;20558;-57
2022/06/06 01:56:07;;;;;;;7.70;7.10;;;;;22.00;100247.00;;;;2079354;28;20276;-58
2022/06/06 01:57:08;;;;;;;7.85;7.20;;;;;22.00;100230.00;;;;2070950;28;20219;-58
2022/06/06 01:58:29;;;;;;;7.70;7.10;;;;;22.00;100256.00;;;;2068494;28;20234;-57
2022/06/06 01:59:29;;;;;;;7.78;7.18;;;;;22.10;100256.00;;;;2074900;28;20740;-58
2022/06/06 02:00:30;;;;;;;7.40;6.80;;;;;22.00;100243.00;;;;2071737;28;20306;-57
2022/06/06 02:01:31;;;;;;;7.25;6.65;;;;;22.10;100254.00;;;;2071913;28;20280;-57
2022/06/06 02:02:31;;;;;;;7.60;7.00;;;;;22.10;100247.00;;;;2062541;28;20219;-58
2022/06/06 02:03:32;;;;;;;7.60;7.00;;;;;22.10;100248.00;;;;2062996;28;20690;-57
2022/06/06 02:04:32;;;;;;;7.67;7.03;;;;;22.10;100256.00;;;;2078314;28;20922;-56
2022/06/06 02:05:32;;;;;;;7.30;6.70;;;;;22.10;100250.00;;;;2078635;28;20252;-56
2022/06/06 02:06:33;;;;;;;6.93;6.43;;;;;22.10;100255.00;;;;2078051;28;20225;-54
2022/06/06 02:07:33;;;;;;;8.10;7.50;;;;;22.10;100254.00;;;;2079799;28;20214;-58
2022/06/06 02:08:33;;;;;;;7.57;6.97;;;;;22.10;100246.00;;;;2079230;28;20371;-58
2022/06/06 02:09:34;;;;;;;7.87;7.27;;;;;22.10;100251.00;;;;2079739;28;20210;-58
2022/06/06 02:10:34;;;;;;;8.97;8.17;;;;;22.10;100257.00;;;;2079685;28;20217;-54
2022/06/06 02:11:35;;;;;;;7.60;6.90;;;;;22.10;100252.00;;;;2079754;28;20705;-56
2022/06/06 02:12:38;;;;;;;7.73;7.13;;;;;22.10;100249.00;;;;2078765;28;20732;-58
2022/06/06 02:13:39;;;;;;;7.38;6.78;;;;;22.10;100251.00;;;;2071143;28;20246;-56
2022/06/06 02:14:39;;;;;;;7.70;7.10;;;;;22.10;100248.00;;;;2078758;28;20676;-59
2022/06/06 02:15:39;;;;;;;7.63;7.03;;;;;22.00;100243.00;;;;2079129;28;20245;-57
2022/06/06 02:16:40;;;;;;;7.00;6.40;;;;;22.10;100241.00;;;;2079100;28;20221;-57
2022/06/06 02:17:40;;;;;;;7.50;6.80;;;;;22.00;100248.00;;;;2070756;28;20237;-58
2022/06/06 02:18:41;;;;;;;7.77;7.17;;;;;22.00;100245.00;;;;2079211;28;20214;-58
2022/06/06 02:19:42;;;;;;;7.30;6.70;;;;;22.00;100245.00;;;;2079352;28;20655;-58
2022/06/06 02:20:43;;;;;;;7.78;7.18;;;;;22.00;100255.00;;;;2072599;28;20268;-58
2022/06/06 02:21:43;;;;;;;8.13;7.43;;;;;22.00;100249.00;;;;2071558;28;20678;-58
2022/06/06 02:22:43;;;;;;;8.10;7.40;;;;;22.10;100250.00;;;;2070992;28;21102;-58
2022/06/06 02:23:44;;;;;;;7.60;7.00;;;;;22.10;100254.00;;;;2070956;28;20729;-56
2022/06/06 02:24:44;;;;;;;8.87;8.17;;;;;22.10;100252.00;;;;2070198;28;20972;-57
2022/06/06 02:25:44;;;;;;;7.70;7.10;;;;;22.00;100254.00;;;;2062387;28;20219;-57
2022/06/06 02:26:45;;;;;;;7.43;6.83;;;;;22.10;100246.00;;;;2070878;28;20213;-58
2022/06/06 02:27:45;;;;;;;8.37;7.57;;;;;22.00;100261.00;;;;2071383;28;20221;-59
2022/06/06 02:28:45;;;;;;;8.27;7.57;;;;;22.10;100259.00;;;;2071376;28;20229;-58
2022/06/06 02:29:46;;;;;;;7.93;7.23;;;;;22.00;100260.00;;;;2071440;28;20677;-57
2022/06/06 02:30:46;;;;;;;7.43;6.90;;;;;22.00;100254.00;;;;2071559;28;20261;-55
2022/06/06 02:31:46;;;;;;;7.83;7.13;;;;;22.00;100251.00;;;;2071282;28;20221;-58
2022/06/06 02:32:47;;;;;;;8.70;8.00;;;;;22.00;100250.00;;;;2071655;28;20293;-57
2022/06/06 02:33:47;;;;;;;8.50;7.77;;;;;22.00;100253.00;;;;2071058;28;20221;-58
2022/06/06 02:34:47;;;;;;;7.80;7.10;;;;;22.00;100256.00;;;;2070601;28;20218;-59
2022/06/06 02:35:48;;;;;;;8.70;8.00;;;;;22.00;100260.00;;;;2069563;28;20242;-58
2022/06/06 02:36:48;;;;;;;8.50;7.80;;;;;22.00;100262.00;;;;2062070;28;20234;-55
2022/06/06 02:37:49;;;;;;;8.47;7.80;;;;;22.00;100261.00;;;;2070603;28;20218;-58
2022/06/06 02:38:49;;;;;;;8.40;7.70;;;;;22.10;100262.00;;;;2070511;28;20846;-54
2022/06/06 02:39:49;;;;;;;7.90;7.30;;;;;22.00;100254.00;;;;2062391;28;20211;-58
2022/06/06 02:40:50;;;;;;;8.60;7.90;;;;;22.10;100254.00;;;;2070367;28;20658;-54
2022/06/06 02:41:50;;;;;;;8.30;7.60;;;;;22.10;100260.00;;;;2070544;28;20861;-57
2022/06/06 02:42:51;;;;;;;7.60;7.00;;;;;22.10;100256.00;;;;2069856;28;20986;-57
2022/06/06 02:43:52;;;;;;;7.73;7.13;;;;;22.10;100265.00;;;;2070521;28;20206;-61
2022/06/06 02:44:52;;;;;;;8.57;7.88;;;;;22.10;100267.00;;;;2071027;28;20213;-60
2022/06/06 02:45:52;;;;;;;8.33;7.63;;;;;22.10;100270.00;;;;2070125;28;20207;-59
2022/06/06 02:46:53;;;;;;;7.53;6.93;;;;;22.10;100254.00;;;;2070835;28;20264;-60
2022/06/06 02:47:55;;;;;;;7.80;7.17;;;;;22.00;100262.00;;;;2070809;28;20233;-58
2022/06/06 02:48:55;;;;;;;8.52;7.82;;;;;22.00;100252.00;;;;2070970;28;20211;-58
2022/06/06 02:49:56;;;;;;;8.50;7.80;;;;;22.00;100258.00;;;;2070297;28;20214;-58
2022/06/06 02:50:57;;;;;;;8.27;7.57;;;;;22.00;100260.00;;;;2062348;28;20262;-58
2022/06/06 02:51:57;;;;;;;7.90;7.20;;;;;22.00;100257.00;;;;2069748;28;20214;-56
2022/06/06 02:52:58;;;;;;;8.27;7.57;;;;;22.00;100253.00;;;;2070655;28;20218;-57
2022/06/06 02:54:01;;;;;;;8.40;7.70;;;;;22.00;100263.00;;;;2061390;28;20215;-59
2022/06/06 02:55:02;;;;;;;8.52;7.82;;;;;22.10;100266.00;;;;2061146;28;20711;-57
2022/06/06 02:56:02;;;;;;;8.40;7.70;;;;;22.00;100263.00;;;;2061102;28;20778;-58
2022/06/06 02:57:03;;;;;;;9.03;8.23;;;;;22.10;100252.00;;;;2061277;28;20210;-59
2022/06/06 02:58:03;;;;;;;8.80;8.10;;;;;22.00;100257.00;;;;2070504;28;20218;-59
2022/06/06 02:59:05;;;;;;;9.17;8.40;;;;;22.00;100255.00;;;;2070360;28;20229;-56
2022/06/06 03:00:06;;;;;;;8.40;7.70;;;;;22.00;100249.00;;;;2061230;28;20627;-58
2022/06/06 03:01:08;;;;;;;8.48;7.78;;;;;22.10;100256.00;;;;2054331;28;20216;-58
2022/06/06 03:02:09;;;;;;;8.77;7.97;;;;;22.10;100260.00;;;;2062218;28;20219;-57
2022/06/06 03:03:10;;;;;;;8.57;7.88;;;;;22.00;100256.00;;;;2066583;28;20214;-55
2022/06/06 03:04:11;;;;;;;8.90;8.20;;;;;22.00;100250.00;;;;2070212;28;20211;-58
2022/06/06 03:05:11;;;;;;;8.30;7.60;;;;;22.00;100255.00;;;;2062109;28;20457;-58
2022/06/06 03:06:18;;;;;;;8.97;8.20;;;;;22.00;100253.00;;;;2061965;28;20210;-58
2022/06/06 03:07:37;;;;;;;8.35;7.65;;;;;22.00;100259.00;;;;2070846;28;20614;-57
2022/06/06 03:09:03;;;;;;;8.20;7.50;;;;;22.00;100252.00;;;;2076061;28;20244;-58
2022/06/06 03:10:18;;;;;;;7.95;7.28;;;;;22.00;100255.00;;;;2070168;28;20260;-58
2022/06/06 03:11:38;;;;;;;8.55;7.85;;;;;22.00;100254.00;;;;2064064;28;20720;-56
2022/06/06 03:12:47;;;;;;;8.32;7.63;;;;;22.00;100255.00;;;;2070175;28;20218;-55
2022/06/06 03:14:23;;;;;;;7.85;7.25;;;;;22.00;100257.00;;;;2070435;28;20222;-58
2022/06/06 03:20:46;;;;;;;8.30;7.60;;;;;22.00;100256.00;;;;2053051;28;20565;-55
2022/06/06 03:20:50;;;;;;;8.10;7.40;;;;;22.00;100251.00;;;;2078764;28;20690;-58
2022/06/06 03:22:01;;;;;;;8.18;7.47;;;;;22.00;100236.00;;;;2078770;28;20227;-57
2022/06/06 03:23:26;;;;;;;8.50;7.80;;;;;22.00;100249.00;;;;2077015;28;20221;-57
2022/06/06 03:24:34;;;;;;;9.15;8.45;;;;;22.00;100248.00;;;;2072739;28;20652;-57
2022/06/06 03:25:42;;;;;;;7.97;7.38;;;;;22.00;100246.00;;;;2071471;28;20284;-58
2022/06/06 03:26:56;;;;;;;8.20;7.60;;;;;22.00;100247.00;;;;2071477;28;20249;-57
2022/06/06 03:28:06;;;;;;;8.63;7.93;;;;;22.00;100235.00;;;;2072102;28;20589;-56
2022/06/06 03:29:36;;;;;;;8.23;7.55;;;;;22.00;100245.00;;;;2071974;28;20218;-57
2022/06/06 03:30:51;;;;;;;7.93;7.22;;;;;22.00;100238.00;;;;2078028;28;20241;-57
2022/06/06 03:32:08;;;;;;;7.80;7.20;;;;;22.00;100244.00;;;;2078847;28;20619;-57
2022/06/06 03:33:31;;;;;;;7.97;7.38;;;;;21.70;100249.00;;;;2078842;28;20217;-57
2022/06/06 03:34:50;;;;;;;8.40;7.70;;;;;22.00;100255.00;;;;2066836;28;20213;-58
2022/06/06 03:35:59;;;;;;;8.23;7.53;;;;;22.00;100258.00;;;;2077807;28;20226;-57
2022/06/06 03:37:06;;;;;;;8.23;7.53;;;;;22.10;100254.00;;;;2069599;28;20237;-58
2022/06/06 03:38:21;;;;;;;8.88;8.10;;;;;22.00;100259.00;;;;2072036;28;20745;-57
2022/06/06 03:39:24;;;;;;;8.43;7.72;;;;;22.00;100247.00;;;;2078246;28;20267;-58
2022/06/06 03:40:30;;;;;;;8.02;7.32;;;;;22.00;100251.00;;;;2078066;28;20225;-57
2022/06/06 03:41:35;;;;;;;8.38;7.68;;;;;22.00;100249.00;;;;2078415;28;20928;-57
2022/06/06 03:42:47;;;;;;;7.50;6.80;;;;;22.00;100252.00;;;;2078555;28;20694;-57
2022/06/06 03:44:41;;;;;;;8.18;7.53;;;;;22.00;100260.00;;;;2078820;28;20217;-56
2022/06/06 03:45:44;;;;;;;8.40;7.70;;;;;22.00;100252.00;;;;2060545;28;20223;-58
2022/06/06 03:46:55;;;;;;;8.05;7.40;;;;;22.00;100258.00;;;;2061325;28;20252;-57
2022/06/06 03:48:12;;;;;;;8.55;7.85;;;;;22.00;100258.00;;;;2071505;28;20555;-57
2022/06/06 03:49:24;;;;;;;8.40;7.70;;;;;22.00;100255.00;;;;2077942;28;20730;-57
2022/06/06 03:51:00;;;;;;;8.20;7.50;;;;;22.00;100259.00;;;;2071433;28;20246;-57
2022/06/06 03:52:20;;;;;;;8.13;7.43;;;;;22.00;100256.00;;;;2065967;28;20841;-57
2022/06/06 03:53:23;;;;;;;9.02;8.23;;;;;22.00;100262.00;;;;2059798;28;20239;-58
2022/06/06 03:54:50;;;;;;;7.50;6.90;;;;;22.00;100263.00;;;;2061381;28;20218;-58
2022/06/06 03:56:20;;;;;;;8.05;7.35;;;;;22.00;100269.00;;;;2067410;28;20323;-59
2022/06/06 03:57:25;;;;;;;7.53;6.93;;;;;22.00;100222.00;;;;2070862;28;20233;-59
2022/06/06 03:58:28;;;;;;;7.18;6.57;;;;;22.00;100266.00;;;;2073898;28;20223;-57
2022/06/06 03:59:29;;;;;;;8.02;7.43;;;;;22.00;100269.00;;;;2065292;28;20223;-57
2022/06/06 04:00:31;;;;;;;8.07;7.37;;;;;22.00;100261.00;;;;2061570;28;20315;-57
2022/06/06 04:01:31;;;;;;;7.63;7.03;;;;;22.00;100259.00;;;;2060498;28;20226;-58
2022/06/06 04:02:35;;;;;;;8.63;7.93;;;;;22.00;100260.00;;;;2061781;28;20262;-60
2022/06/06 04:03:36;;;;;;;8.48;7.78;;;;;22.00;100262.00;;;;2064809;28;20253;-58
2022/06/06 04:04:36;;;;;;;8.90;8.20;;;;;22.00;100256.00;;;;2062227;28;20333;-57
2022/06/06 04:05:37;;;;;;;7.70;7.10;;;;;22.00;100269.00;;;;2060873;28;20210;-59
2022/06/06 04:06:37;;;;;;;8.93;8.20;;;;;22.00;100262.00;;;;2062007;28;20306;-60
2022/06/06 04:07:37;;;;;;;7.50;6.90;;;;;22.00;100270.00;;;;2070203;28;20701;-57
2022/06/06 04:08:38;;;;;;;7.90;7.27;;;;;22.00;100272.00;;;;2076323;28;20760;-56
2022/06/06 04:09:38;;;;;;;8.30;7.60;;;;;22.00;100273.00;;;;2075307;28;20580;-54
2022/06/06 04:10:49;;;;;;;8.27;7.57;;;;;22.00;100281.00;;;;2075141;28;20425;-55
2022/06/06 04:12:01;;;;;;;7.75;7.13;;;;;22.00;100275.00;;;;2070196;28;20225;-61
2022/06/06 04:13:18;;;;;;;7.43;6.72;;;;;22.00;100269.00;;;;2068465;28;20214;-59
2022/06/06 04:14:37;;;;;;;7.57;6.97;;;;;22.00;100274.00;;;;2078069;28;20217;-57
2022/06/06 04:15:53;;;;;;;7.75;7.13;;;;;22.00;100282.00;;;;2069832;28;20206;-59
2022/06/06 04:17:17;;;;;;;7.40;6.70;;;;;22.00;100281.00;;;;2069501;28;20210;-57
2022/06/06 04:18:44;;;;;;;7.20;6.70;;;;;22.00;100273.00;;;;2061232;28;20210;-58
2022/06/06 04:19:55;;;;;;;7.93;7.22;;;;;22.00;100275.00;;;;2068085;28;20683;-57
2022/06/06 04:21:20;;;;;;;7.72;7.03;;;;;22.00;100272.00;;;;2070175;28;20713;-58
2022/06/06 04:22:30;;;;;;;7.90;7.15;;;;;22.00;100280.00;;;;2060812;28;20241;-58
2022/06/06 04:23:47;;;;;;;7.53;6.82;;;;;22.00;100282.00;;;;2061196;28;21077;-57
2022/06/06 04:24:58;;;;;;;7.55;6.95;;;;;22.00;100280.00;;;;2069504;28;20218;-58
2022/06/06 04:26:10;;;;;;;7.32;6.80;;;;;22.00;100284.00;;;;2065093;28;20222;-57
2022/06/06 04:27:26;;;;;;;8.02;7.32;;;;;22.00;100283.00;;;;2063291;28;20703;-58
2022/06/06 04:28:32;;;;;;;7.28;6.63;;;;;22.00;100280.00;;;;2069223;28;20221;-57
2022/06/06 04:29:39;;;;;;;7.15;6.55;;;;;22.00;100289.00;;;;2069157;28;20229;-58
2022/06/06 04:30:50;;;;;;;7.20;6.60;;;;;22.00;100279.00;;;;2061945;28;20230;-58
2022/06/06 04:32:03;;;;;;;6.75;6.18;;;;;22.00;100289.00;;;;2061430;28;20302;-56
2022/06/06 04:33:18;;;;;;;7.25;6.65;;;;;22.00;100285.00;;;;2062526;28;20245;-58
2022/06/06 04:34:35;;;;;;;8.10;7.30;;;;;22.00;100281.00;;;;2068775;28;20313;-59
2022/06/06 04:35:39;;;;;;;6.80;6.30;;;;;22.00;100279.00;;;;2067729;28;20312;-58
2022/06/06 04:36:58;;;;;;;7.03;6.43;;;;;22.00;100287.00;;;;2060985;28;20727;-56
2022/06/06 04:38:05;;;;;;;7.07;6.47;;;;;22.00;100278.00;;;;2067648;28;20860;-57
2022/06/06 04:39:19;;;;;;;7.10;6.50;;;;;22.00;100287.00;;;;2063350;28;20620;-57
2022/06/06 04:40:35;;;;;;;7.20;6.60;;;;;22.00;100291.00;;;;2075704;28;20230;-56
2022/06/06 04:42:09;;;;;;;7.75;7.05;;;;;22.00;100288.00;;;;2077552;28;20217;-57
2022/06/06 04:43:38;;;;;;;6.55;6.05;;;;;22.00;100293.00;;;;2075985;28;20218;-56
2022/06/06 04:44:57;;;;;;;7.80;7.10;;;;;22.00;100289.00;;;;2070211;28;20197;-57
2022/06/06 04:46:21;;;;;;;7.10;6.50;;;;;22.00;100295.00;;;;2076039;28;20201;-57
2022/06/06 04:47:29;;;;;;;7.40;6.80;;;;;22.00;100288.00;;;;2076415;28;20209;-56
2022/06/06 04:48:29;;;;;;;6.80;6.30;;;;;22.00;100292.00;;;;2069616;28;20693;-56
2022/06/06 04:49:30;;;;;;;6.90;6.30;;;;;22.00;100289.00;;;;2060769;28;20227;-61
2022/06/06 04:50:30;;;;;;;7.30;6.70;;;;;22.00;100277.00;;;;2057759;28;20255;-61
2022/06/06 04:51:30;;;;;;;7.47;6.87;;;;;22.00;100291.00;;;;2058296;28;20651;-60
2022/06/06 04:52:32;;;;;;;7.33;6.20;;;;;22.00;100288.00;;;;2056671;28;20219;-57
2022/06/06 04:53:36;;;;;;;7.50;6.90;;;;;22.00;100289.00;;;;2050044;28;20298;-57
2022/06/06 04:54:38;;;;;;;7.70;7.10;;;;;22.00;100288.00;;;;2067720;28;20210;-58
2022/06/06 04:55:40;;;;;;;7.50;6.90;;;;;22.00;100301.00;;;;2052555;28;20215;-57
2022/06/06 04:56:40;;;;;;;6.50;6.00;;;;;22.00;100299.00;;;;2053810;28;20836;-58
2022/06/06 04:57:43;;;;;;;6.50;6.00;;;;;22.00;100293.00;;;;2044274;28;20452;-61
2022/06/06 04:58:44;;;;;;;7.13;6.60;;;;;22.00;100300.00;;;;2045452;28;20300;-57
2022/06/06 04:59:44;;;;;;;6.77;6.17;;;;;22.00;100284.00;;;;2069019;28;20305;-56
2022/06/06 05:00:45;;;;;;;8.10;6.90;;;;;22.00;100305.00;;;;2060793;28;20221;-57
2022/06/06 05:01:45;;;;;;;6.27;5.77;;;;;22.00;100305.00;;;;2052478;28;20226;-57
2022/06/06 05:02:45;;;;;;;6.97;6.37;;;;;22.00;100303.00;;;;2060729;28;20305;-57
2022/06/06 05:03:46;;;;;;;6.43;5.93;;;;;22.00;100304.00;;;;2069019;28;20225;-58
2022/06/06 05:04:46;;;;;;;6.23;5.73;;;;;22.00;100309.00;;;;2069346;28;20225;-55
2022/06/06 05:06:28;;;;;;;6.47;5.97;;;;;22.00;100311.00;;;;2068985;28;20283;-55
2022/06/06 05:07:50;;;;;;;6.03;5.53;;;;;22.00;100312.00;;;;2054726;28;20226;-56
2022/06/06 05:08:56;;;;;;;6.05;5.55;;;;;22.00;100312.00;;;;2069075;28;20229;-55
2022/06/06 05:10:22;;;;;;;6.60;6.10;;;;;22.00;100313.00;;;;2069516;28;20666;-56
2022/06/06 05:11:49;;;;;;;6.10;5.60;;;;;22.00;100312.00;;;;2068797;28;20261;-57
2022/06/06 05:12:55;;;;;;;6.38;5.88;;;;;22.00;100314.00;;;;2064692;28;20272;-56
2022/06/06 05:14:01;;;;;;;6.47;5.93;;;;;22.00;100306.00;;;;2077392;28;20721;-58
2022/06/06 05:15:12;;;;;;;6.63;6.13;;;;;22.00;100314.00;;;;2076723;28;20243;-57
2022/06/06 05:16:27;;;;;;;6.40;5.90;;;;;22.00;100314.00;;;;2076248;28;20237;-57
2022/06/06 05:17:53;;;;;;;5.70;5.30;;;;;22.00;100311.00;;;;2077346;28;20223;-57
2022/06/06 05:19:22;;;;;;;6.50;6.00;;;;;22.00;100306.00;;;;2076620;28;20220;-56
2022/06/06 05:20:25;;;;;;;6.18;5.68;;;;;22.00;100311.00;;;;2072293;28;20209;-57
2022/06/06 05:21:44;;;;;;;6.97;6.38;;;;;22.00;100317.00;;;;2065567;28;20214;-57
2022/06/06 05:23:03;;;;;;;6.35;5.85;;;;;22.00;100312.00;;;;2065352;28;20214;-57
2022/06/06 05:24:18;;;;;;;5.75;5.35;;;;;22.00;100304.00;;;;2078479;28;20267;-57
2022/06/06 05:25:32;;;;;;;6.18;5.68;;;;;22.00;100294.00;;;;2077993;28;20217;-55
2022/06/06 05:26:35;;;;;;;5.68;5.18;;;;;22.00;100318.00;;;;2058637;28;20238;-57
2022/06/06 05:27:47;;;;;;;6.53;6.03;;;;;22.00;100312.00;;;;2074507;28;20699;-57
2022/06/06 05:29:05;;;;;;;5.95;5.47;;;;;22.00;100313.00;;;;2080459;28;20248;-56
2022/06/06 05:30:41;;;;;;;5.80;5.40;;;;;22.00;100311.00;;;;2075793;28;20224;-57
2022/06/06 05:31:53;;;;;;;6.55;6.05;;;;;22.00;100309.00;;;;2078712;28;20236;-57
2022/06/06 05:33:05;;;;;;;5.78;5.28;;;;;22.00;100311.00;;;;2063995;28;20219;-56
2022/06/06 05:34:13;;;;;;;6.10;5.60;;;;;22.10;100317.00;;;;2058281;28;20207;-57
2022/06/06 05:35:35;;;;;;;6.40;5.80;;;;;22.00;100316.00;;;;2059958;28;20602;-57
2022/06/06 05:36:45;;;;;;;6.28;5.72;;;;;22.10;100318.00;;;;2070055;28;20260;-57
2022/06/06 05:38:07;;;;;;;5.65;5.25;;;;;22.10;100322.00;;;;2075361;28;20237;-57
2022/06/06 05:39:19;;;;;;;6.50;6.00;;;;;22.00;100321.00;;;;2071086;28;20298;-57